Aeroporto :
LOGIN :

Iscrizione | Disclaimer

   EN    FR    IT 

 










Sommario :    VFR   VFR Marginale   IFR   IFR Intensivo   IFR Molto Intensivo
Visibilità : 
Base nubi : 
>= 8 km
>= 3000ft
5 / 8 km
1000 / 3000 ft
1500m / 5 km
500 / 1000 ft
800 / 1500m
200 / 500 ft
< 800m
< 200 ft
Simboli :   Temporali  Nebbia  Neve Forte  Precipitazioni Forti  Vento > 20 kt
SIGMETs :   Varie  Temporali  Ghiacco  Turbolenza  Onda orograficha  Ceneri Vulcaniche






- Altitudine del aeroporto : 423 ft
- Codice IATA : PIS


LFBI - Poitiers

ULTIMO METAR :
  • 100430Z AUTO 19004KT CAVOK 01/01 Q1029 TEMPO 0800 BCFG

METARs OBSOLETI :
  • 100400Z AUTO 20003KT CAVOK 00/00 Q1029 TEMPO 4000 BR
  • 100330Z AUTO 20003KT CAVOK 02/01 Q1029 TEMPO 4000 BR
  • 100300Z AUTO 19003KT CAVOK 01/01 Q1030 TEMPO 4000 BR
  • 100230Z AUTO 23002KT CAVOK 01/01 Q1030 TEMPO 4000 BR
  • 100200Z AUTO 29002KT CAVOK 02/01 Q1029 TEMPO 4000 BR

TAF AMD TAF LFBI
Valido dal 10 a 00 ore il 11 a 00 ore UTC


100000Z 1000/1024 VRB03KT CAVOK
PROB30
TEMPO 1003/1006 4000 BR
PROB40 1006/1009 3000 BR
PROB30
TEMPO 1006/1009 0800 BCFG
BECMG 1009/1011 18010KT
BECMG 1019/1021 20015G25KT
BECMG 1022/1024 OVC015



MetMap, La meteo Aeronautica in un colpo d'occhio ! - Copyright ORBIFLY Dicembre 2007 - Disclaimer

ORBIFLY MET'MAP TEAM :

Programmazione e sviluppo : Alexandra Zaïnal
Concezione : Baudouin d'Aumeries
Aiuto per la programmazione : Marc-Olivier Méhu
Supporto tecnico e logistico : Manuel Goepfert
Aiuto per la traduzione : Arnaldo La Scala

Contatto : metmap@orbifly.com




FONTI E CREDITI :

   NOAA